MMZO/ZLO METAR and TAF weather

Enter ICAO airport designator
Station Type Date Time Source
MMZO METAR 2019/11/14 01:53 UTC NOAA

MMZO 140153Z 00000KT 6SM BKN020 OVC100 28/26 A2995 RMK 8/57/ DZ


Station Type Date Time Source
MMZO Decoded METAR 2019/11/14 01:53 UTC NOAA

Manzanillo International , Mexico (MMZO) 19-09N 104-34W
Nov 13, 2019 - 08:53 PM EST / 2019.11.14 0153 UTC
Wind: Calm:0
Visibility: 6 mile(s):0
Sky conditions: overcast
Temperature: 82 F (28 C)
Dew Point: 78 F (26 C)
Relative Humidity: 88%
Pressure (altimeter): 29.95 in. Hg (1014 hPa)
ob: MMZO 140153Z 00000KT 6SM BKN020 OVC100 28/26 A2995 RMK 8/57/ DZ
cycle: 2

Station Type Date Time Source
MMZO TAF 2019/11/14 01:59 UTC NOAA

TAF
AMD MMZO 140051Z 1401/1418 27012KT 3SM RA OVC020CB
FM140200 26008KT 6SM -RA BKN020 BKN090 BKN200
FM140600 04006KT P6SM SCT020 BKN080
FM141500 18006KT P6SM BKN090

Example: see airport list